Corpus Christi, TX

1:46 AM CDT on April 28, 2015 (GMT -0500)
Corpus Christi International | Change Station
CLOSE
Current Station
Airport
Location: Corpus Christi,
Elevation: 43 ft
Nearby Weather Stations

Elev 43 ft 27.77 °N, 97.51 °W | Updated 13 minutes ago

Clear
Clear
73 °F
Feels Like 73 °F
N
0
Wind Variable Wind from North

Today
High -- | Low -- °F
--% Chance of Precip.
Yesterday
High -- | Low -- °F
Precip. -- in
6:53 AM 8:02 PM
Waxing Gibbous, 71% visible
Pressure 29.76 in
Visibility 10.0 miles
Clouds Few 800 ft
Mostly Cloudy 1200 ft
Mostly Cloudy 25000 ft
Dew Point 70 °F
Humidity 90%
Rainfall 0.00 in
Snow Depth Not available.
UV 0 out of 12
Pollen 8.00 out of 12
Ozone Good
Flu Activity Local Activity
SPECI KCRP 280633Z 00000KT 10SM FEW008 BKN012 BKN250 23/21 A2976 RMK AO2 T02280211

More Conditions Fewer Conditions

Pressure 29.76 in
Visibility 10.0 miles
Clouds Few 800 ft
Mostly Cloudy 1200 ft
Mostly Cloudy 25000 ft
Dew Point 70 °F
Humidity 90%
Rainfall 0.00 in
Snow Depth Not available.
UV 0 out of 12
Pollen 8.00 out of 12
Ozone Good
Flu Activity Local Activity
SPECI KCRP 280633Z 00000KT 10SM FEW008 BKN012 BKN250 23/21 A2976 RMK AO2 T02280211

More Conditions Fewer Conditions

10-Day Weather Forecast

Almanac

Astronomy

Apr. 28, 2015 Rise Set
Actual Time 6:53 AM CDT 8:02 PM CDT
Civil Twilight 6:28 AM CDT 8:26 PM CDT
Nautical Twilight 5:59 AM CDT 8:56 PM CDT
Astronomical Twilight 5:29 AM CDT 9:26 PM CDT
Moon 3:33 PM CDT 3:38 AM CDT
Length of Visible Light 13h 58m
Length of Day
13h 09m
Tomorrow will be 1m 27s longer.
Waxing Gibbous, 71% of the Moon is Illuminated
Today
Waxing Gibbous
May 3
Full
May 11
Last Quarter
May 18
New
May 25
First Quarter

Today's Extremes

State Highs State Lows

Community

WunderPhotos

Upload Photos

1,817,591 photos uploaded!

Nearby

Air Quality

  Air Quality AQ Index Pollutant
Yesterday Good
OZONE
Current Good
OZONE
Monday Good
PM10
Monday Good
OZONE
Tuesday Good
OZONE
Tuesday Good
PM10
Wednesday Good
OZONE
Wednesday Good
PM10
Thursday Good
OZONE
Thursday Good
PM10

Snow Depth

Station Depth Elevation
No new snow has been reported.

Earthquake Activity

City Distance Mag. Time & Date
No recent earthquake activity has been reported nearby.
Minimum magnitude displayed is 2.5.

Coastal Water Temperatures

Place Temperature
Packery Channel, TX 80.1 °F
Port Aransas, TX 75.9 °F
Malaquite Beach (Corpus Christi), TX 78.1 °F

Nearby Weather Stations